To NAV CANADA Home Page Login to a new session Search on AWWS site Feedback and Comments Disclaimer Vers la page française équivalente Tips FAQ What's new on the site To the Forecasts and Observations / NOTAM section To "File a Flight Plan" website Publications and other links Update of the User's profile FIC Telephone Numbers My Weather Data Folder Route Weather Data Regional Weather Data Local Weather Data To the Forecasts and Observations / NOTAM section
Request Generated 08/22/2017 at 01:39:32 UTC . Weather information available at that time is displayed.

METAR/TAF

CAPE DORSET/NU    (show WxCam)

METAR CYTE 220100Z AUTO 30002KT 9SM CLR 09/M02 A2987 RMK SLP121=
METAR CYTE 220000Z AUTO 24008KT 9SM CLR 09/M02 A2987 RMK SLP119=
METAR CYTE 212300Z AUTO 23009KT 9SM CLR 09/M03 A2987 RMK SLP119=

TAF CYTE 220038Z 2201/2213 26007KT P6SM SKC
RMK FCST BASED ON AUTO OBS. NXT FCST BY 220700Z=
Your time UTC time
Weather data provided by Environment Canada and NAV CANADA